sensor_id;sensor_type;location;lat;lon;timestamp;pressure;altitude;pressure_sealevel;temperature;humidity
11329;BME280;5719;42.714;23.732;2023-12-28T00:01:47;95517.97;;;2.62;76.88
11329;BME280;5719;42.714;23.732;2023-12-28T00:04:15;95524.84;;;2.59;77.47
11329;BME280;5719;42.714;23.732;2023-12-28T00:06:42;95519.78;;;2.56;77.14
11329;BME280;5719;42.714;23.732;2023-12-28T00:09:10;95521.59;;;2.52;76.97
11329;BME280;5719;42.714;23.732;2023-12-28T00:11:37;95536.06;;;2.52;77.07
11329;BME280;5719;42.714;23.732;2023-12-28T00:14:05;95531.84;;;2.51;77.72
11329;BME280;5719;42.714;23.732;2023-12-28T00:16:32;95532.78;;;2.46;78.28
11329;BME280;5719;42.714;23.732;2023-12-28T00:18:59;95528.63;;;2.44;78.13
11329;BME280;5719;42.714;23.732;2023-12-28T00:21:27;95534.53;;;2.44;77.28
11329;BME280;5719;42.714;23.732;2023-12-28T00:23:54;95532.09;;;2.40;77.58
11329;BME280;5719;42.714;23.732;2023-12-28T00:26:21;95538.94;;;2.38;77.82
11329;BME280;5719;42.714;23.732;2023-12-28T00:28:48;95531.34;;;2.36;78.77
11329;BME280;5719;42.714;23.732;2023-12-28T00:31:16;95530.50;;;2.36;78.87
11329;BME280;5719;42.714;23.732;2023-12-28T00:33:43;95530.56;;;2.33;79.43
11329;BME280;5719;42.714;23.732;2023-12-28T00:36:09;95532.22;;;2.34;81.15
11329;BME280;5719;42.714;23.732;2023-12-28T00:38:36;95533.16;;;2.31;81.61
11329;BME280;5719;42.714;23.732;2023-12-28T00:41:03;95532.22;;;2.34;81.96
11329;BME280;5719;42.714;23.732;2023-12-28T00:43:30;95531.38;;;2.33;83.93
11329;BME280;5719;42.714;23.732;2023-12-28T00:45:57;95532.31;;;2.31;82.93
11329;BME280;5719;42.714;23.732;2023-12-28T00:48:25;95530.75;;;2.25;82.54
11329;BME280;5719;42.714;23.732;2023-12-28T00:50:52;95534.19;;;2.23;82.93
11329;BME280;5719;42.714;23.732;2023-12-28T00:53:21;95532.56;;;2.19;83.24
11329;BME280;5719;42.714;23.732;2023-12-28T00:55:48;95539.41;;;2.18;83.44
11329;BME280;5719;42.714;23.732;2023-12-28T00:58:15;95539.41;;;2.18;83.54
11329;BME280;5719;42.714;23.732;2023-12-28T01:00:42;95543.63;;;2.19;83.18
11329;BME280;5719;42.714;23.732;2023-12-28T01:03:08;95543.63;;;2.19;82.57
11329;BME280;5719;42.714;23.732;2023-12-28T01:05:37;95540.31;;;2.16;81.87
11329;BME280;5719;42.714;23.732;2023-12-28T01:08:04;95543.75;;;2.15;81.15
11329;BME280;5719;42.714;23.732;2023-12-28T01:10:30;95556.50;;;2.15;80.19
11329;BME280;5719;42.714;23.732;2023-12-28T01:12:57;95548.03;;;2.13;79.62
11329;BME280;5719;42.714;23.732;2023-12-28T01:15:23;95546.41;;;2.10;79.84
11329;BME280;5719;42.714;23.732;2023-12-28T01:17:50;95535.41;;;2.07;80.15
11329;BME280;5719;42.714;23.732;2023-12-28T01:20:17;95545.63;;;2.07;79.57
11329;BME280;5719;42.714;23.732;2023-12-28T01:22:45;95543.94;;;2.06;80.60
11329;BME280;5719;42.714;23.732;2023-12-28T01:25:12;95542.25;;;2.05;80.75
11329;BME280;5719;42.714;23.732;2023-12-28T01:27:39;95539.69;;;2.05;80.19
11329;BME280;5719;42.714;23.732;2023-12-28T01:30:06;95539.69;;;2.05;79.65
11329;BME280;5719;42.714;23.732;2023-12-28T01:32:33;95542.31;;;2.02;79.97
11329;BME280;5719;42.714;23.732;2023-12-28T01:35:00;95542.38;;;2.00;79.91
11329;BME280;5719;42.714;23.732;2023-12-28T01:37:27;95538.16;;;1.97;79.61
11329;BME280;5719;42.714;23.732;2023-12-28T01:39:58;95541.66;;;1.93;79.52
11329;BME280;5719;42.714;23.732;2023-12-28T01:42:24;95545.09;;;1.92;80.39
11329;BME280;5719;42.714;23.732;2023-12-28T01:44:51;95543.59;;;1.82;81.91
11329;BME280;5719;42.714;23.732;2023-12-28T01:47:18;95544.47;;;1.81;82.90
11329;BME280;5719;42.714;23.732;2023-12-28T01:49:45;95547.09;;;1.78;83.21
11329;BME280;5719;42.714;23.732;2023-12-28T01:52:12;95538.56;;;1.79;83.40
11329;BME280;5719;42.714;23.732;2023-12-28T01:54:39;95539.31;;;1.84;84.12
11329;BME280;5719;42.714;23.732;2023-12-28T01:57:08;95543.53;;;1.85;83.92
11329;BME280;5719;42.714;23.732;2023-12-28T01:59:35;95542.66;;;1.86;83.70
11329;BME280;5719;42.714;23.732;2023-12-28T02:02:02;95552.78;;;1.89;84.00
11329;BME280;5719;42.714;23.732;2023-12-28T02:04:30;95544.34;;;1.87;83.19
11329;BME280;5719;42.714;23.732;2023-12-28T02:06:59;95540.94;;;1.87;82.65
11329;BME280;5719;42.714;23.732;2023-12-28T02:09:26;95542.66;;;1.86;82.84
11329;BME280;5719;42.714;23.732;2023-12-28T02:11:53;95541.78;;;1.87;81.60
11329;BME280;5719;42.714;23.732;2023-12-28T02:14:22;95543.59;;;1.82;81.02
11329;BME280;5719;42.714;23.732;2023-12-28T02:16:53;95538.63;;;1.76;79.87
11329;BME280;5719;42.714;23.732;2023-12-28T02:19:30;95551.50;;;1.70;80.99
11329;BME280;5719;42.714;23.732;2023-12-28T02:21:59;95534.63;;;1.65;81.45
11329;BME280;5719;42.714;23.732;2023-12-28T02:24:26;95534.75;;;1.59;81.04
11329;BME280;5719;42.714;23.732;2023-12-28T02:26:54;95537.31;;;1.59;80.68
11329;BME280;5719;42.714;23.732;2023-12-28T02:29:23;95536.53;;;1.55;81.40
11329;BME280;5719;42.714;23.732;2023-12-28T02:31:53;95536.53;;;1.54;80.90
11329;BME280;5719;42.714;23.732;2023-12-28T02:34:27;95539.16;;;1.51;80.94
11329;BME280;5719;42.714;23.732;2023-12-28T02:36:56;95526.47;;;1.49;81.08
11329;BME280;5719;42.714;23.732;2023-12-28T02:39:24;95534.97;;;1.48;80.86
11329;BME280;5719;42.714;23.732;2023-12-28T02:41:54;95530.81;;;1.44;81.31
11329;BME280;5719;42.714;23.732;2023-12-28T02:44:21;95525.78;;;1.41;80.93
11329;BME280;5719;42.714;23.732;2023-12-28T02:46:48;95527.53;;;1.37;81.32
11329;BME280;5719;42.714;23.732;2023-12-28T02:49:15;95530.97;;;1.35;81.20
11329;BME280;5719;42.714;23.732;2023-12-28T02:51:42;95527.66;;;1.31;81.73
11329;BME280;5719;42.714;23.732;2023-12-28T02:54:09;95530.38;;;1.24;82.81
11329;BME280;5719;42.714;23.732;2023-12-28T02:56:35;95524.38;;;1.25;81.77
11329;BME280;5719;42.714;23.732;2023-12-28T02:59:03;95518.44;;;1.26;82.04
11329;BME280;5719;42.714;23.732;2023-12-28T03:01:30;95512.53;;;1.24;81.26
11329;BME280;5719;42.714;23.732;2023-12-28T03:03:57;95515.94;;;1.23;81.31
11329;BME280;5719;42.714;23.732;2023-12-28T03:06:24;95510.00;;;1.22;81.22
11329;BME280;5719;42.714;23.732;2023-12-28T03:08:51;95505.84;;;1.18;81.00
11329;BME280;5719;42.714;23.732;2023-12-28T03:11:17;95506.75;;;1.16;80.19
11329;BME280;5719;42.714;23.732;2023-12-28T03:13:46;95496.63;;;1.13;79.72
11329;BME280;5719;42.714;23.732;2023-12-28T03:16:14;95503.44;;;1.12;81.14
11329;BME280;5719;42.714;23.732;2023-12-28T03:18:41;95504.28;;;1.13;80.81
11329;BME280;5719;42.714;23.732;2023-12-28T03:21:08;95501.72;;;1.13;82.03
11329;BME280;5719;42.714;23.732;2023-12-28T03:23:34;95505.09;;;1.13;81.32
11329;BME280;5719;42.714;23.732;2023-12-28T03:26:01;95501.72;;;1.13;80.98
11329;BME280;5719;42.714;23.732;2023-12-28T03:28:28;95498.28;;;1.14;81.74
11329;BME280;5719;42.714;23.732;2023-12-28T03:30:55;95499.13;;;1.14;82.26
11329;BME280;5719;42.714;23.732;2023-12-28T03:33:25;95507.69;;;1.12;82.64
11329;BME280;5719;42.714;23.732;2023-12-28T03:35:52;95511.88;;;1.14;83.27
11329;BME280;5719;42.714;23.732;2023-12-28T03:38:19;95507.63;;;1.15;82.60
11329;BME280;5719;42.714;23.732;2023-12-28T03:40:46;95499.97;;;1.15;83.74
11329;BME280;5719;42.714;23.732;2023-12-28T03:43:14;95505.03;;;1.16;83.75
11329;BME280;5719;42.714;23.732;2023-12-28T03:45:41;95521.19;;;1.14;84.49
11329;BME280;5719;42.714;23.732;2023-12-28T03:48:08;95514.50;;;1.10;85.49
11329;BME280;5719;42.714;23.732;2023-12-28T03:50:36;95516.94;;;1.16;88.08
11329;BME280;5719;42.714;23.732;2023-12-28T03:53:03;95520.31;;;1.16;89.81
11329;BME280;5719;42.714;23.732;2023-12-28T03:55:30;95522.81;;;1.18;89.27
11329;BME280;5719;42.714;23.732;2023-12-28T03:57:56;95521.19;;;1.14;88.13
11329;BME280;5719;42.714;23.732;2023-12-28T04:00:24;95519.53;;;1.13;88.06
11329;BME280;5719;42.714;23.732;2023-12-28T04:02:51;95513.56;;;1.14;88.68
11329;BME280;5719;42.714;23.732;2023-12-28T04:05:17;95522.81;;;1.18;88.34
11329;BME280;5719;42.714;23.732;2023-12-28T04:07:46;95525.38;;;1.18;89.00
11329;BME280;5719;42.714;23.732;2023-12-28T04:10:12;95525.41;;;1.16;87.92
11329;BME280;5719;42.714;23.732;2023-12-28T04:12:39;95525.56;;;1.09;87.11
11329;BME280;5719;42.714;23.732;2023-12-28T04:15:06;95513.81;;;1.00;88.60
11329;BME280;5719;42.714;23.732;2023-12-28T04:17:33;95522.25;;;1.04;88.70
11329;BME280;5719;42.714;23.732;2023-12-28T04:20:00;95524.78;;;1.04;89.12
11329;BME280;5719;42.714;23.732;2023-12-28T04:22:26;95530.72;;;1.04;89.01
11329;BME280;5719;42.714;23.732;2023-12-28T04:24:54;95519.69;;;1.05;89.34
11329;BME280;5719;42.714;23.732;2023-12-28T04:27:21;95527.28;;;1.07;89.38
11329;BME280;5719;42.714;23.732;2023-12-28T04:29:48;95526.47;;;1.05;88.12
11329;BME280;5719;42.714;23.732;2023-12-28T04:32:15;95526.41;;;1.08;87.65
11329;BME280;5719;42.714;23.732;2023-12-28T04:34:42;95524.84;;;1.01;88.08
11329;BME280;5719;42.714;23.732;2023-12-28T04:37:09;95530.72;;;1.04;89.23
11329;BME280;5719;42.714;23.732;2023-12-28T04:39:37;95525.63;;;1.04;88.09
11329;BME280;5719;42.714;23.732;2023-12-28T04:42:05;95525.66;;;1.03;87.06
11329;BME280;5719;42.714;23.732;2023-12-28T04:44:32;95525.69;;;1.01;86.85
11329;BME280;5719;42.714;23.732;2023-12-28T04:47:04;95515.59;;;0.96;85.65
11329;BME280;5719;42.714;23.732;2023-12-28T04:49:30;95518.13;;;0.98;86.69
11329;BME280;5719;42.714;23.732;2023-12-28T04:51:57;95522.44;;;0.94;85.74
11329;BME280;5719;42.714;23.732;2023-12-28T04:54:25;95520.69;;;0.96;85.52
11329;BME280;5719;42.714;23.732;2023-12-28T04:56:52;95524.97;;;0.94;85.19
11329;BME280;5719;42.714;23.732;2023-12-28T04:59:21;95524.16;;;0.92;85.54
11329;BME280;5719;42.714;23.732;2023-12-28T05:01:48;95523.34;;;0.90;85.87
11329;BME280;5719;42.714;23.732;2023-12-28T05:04:15;95521.66;;;0.91;85.33
11329;BME280;5719;42.714;23.732;2023-12-28T05:06:41;95522.53;;;0.88;85.64
11329;BME280;5719;42.714;23.732;2023-12-28T05:09:08;95529.31;;;0.88;85.55
11329;BME280;5719;42.714;23.732;2023-12-28T05:11:35;95529.31;;;0.89;85.56
11329;BME280;5719;42.714;23.732;2023-12-28T05:14:02;95530.16;;;0.88;86.54
11329;BME280;5719;42.714;23.732;2023-12-28T05:16:30;95526.78;;;0.88;86.03
11329;BME280;5719;42.714;23.732;2023-12-28T05:18:57;95529.31;;;0.89;86.35
11329;BME280;5719;42.714;23.732;2023-12-28T05:21:23;95529.31;;;0.88;85.93
11329;BME280;5719;42.714;23.732;2023-12-28T05:23:50;95528.50;;;0.86;86.03
11329;BME280;5719;42.714;23.732;2023-12-28T05:26:17;95526.94;;;0.79;85.36
11329;BME280;5719;42.714;23.732;2023-12-28T05:28:44;95529.50;;;0.79;86.24
11329;BME280;5719;42.714;23.732;2023-12-28T05:31:10;95535.50;;;0.75;85.18
11329;BME280;5719;42.714;23.732;2023-12-28T05:33:40;95530.53;;;0.67;84.83
11329;BME280;5719;42.714;23.732;2023-12-28T05:36:07;95538.16;;;0.69;84.98
11329;BME280;5719;42.714;23.732;2023-12-28T05:38:33;95537.41;;;0.62;83.56
11329;BME280;5719;42.714;23.732;2023-12-28T05:41:00;95542.53;;;0.59;83.69
11329;BME280;5719;42.714;23.732;2023-12-28T05:43:27;95542.66;;;0.55;83.33
11329;BME280;5719;42.714;23.732;2023-12-28T05:45:53;95552.84;;;0.52;83.59
11329;BME280;5719;42.714;23.732;2023-12-28T05:48:20;95547.84;;;0.47;82.28
11329;BME280;5719;42.714;23.732;2023-12-28T05:50:48;95553.00;;;0.41;83.21
11329;BME280;5719;42.714;23.732;2023-12-28T05:53:15;95555.75;;;0.29;83.38
11329;BME280;5719;42.714;23.732;2023-12-28T05:55:42;95558.44;;;0.20;83.41
11329;BME280;5719;42.714;23.732;2023-12-28T05:58:09;95553.44;;;0.14;83.64
11329;BME280;5719;42.714;23.732;2023-12-28T06:00:36;95561.00;;;0.18;84.12
11329;BME280;5719;42.714;23.732;2023-12-28T06:03:04;95566.91;;;0.19;85.50
11329;BME280;5719;42.714;23.732;2023-12-28T06:05:31;95564.31;;;0.23;84.94
11329;BME280;5719;42.714;23.732;2023-12-28T06:07:59;95563.47;;;0.23;84.97
11329;BME280;5719;42.714;23.732;2023-12-28T06:10:26;95560.03;;;0.27;86.18
11329;BME280;5719;42.714;23.732;2023-12-28T06:12:53;95562.63;;;0.24;86.06
11329;BME280;5719;42.714;23.732;2023-12-28T06:15:19;95567.63;;;0.28;85.68
11329;BME280;5719;42.714;23.732;2023-12-28T06:17:46;95568.50;;;0.26;85.78
11329;BME280;5719;42.714;23.732;2023-12-28T06:20:13;95573.50;;;0.32;84.70
11329;BME280;5719;42.714;23.732;2023-12-28T06:22:40;95570.06;;;0.36;84.96
11329;BME280;5719;42.714;23.732;2023-12-28T06:25:10;95567.31;;;0.48;84.37
11329;BME280;5719;42.714;23.732;2023-12-28T06:27:37;95568.81;;;0.60;82.96
11329;BME280;5719;42.714;23.732;2023-12-28T06:30:05;95567.75;;;0.74;82.62
11329;BME280;5719;42.714;23.732;2023-12-28T06:32:32;95577.69;;;0.88;82.97
11329;BME280;5719;42.714;23.732;2023-12-28T06:34:59;95584.13;;;1.09;83.14
11329;BME280;5719;42.714;23.732;2023-12-28T06:37:26;95581.19;;;1.30;82.29
11329;BME280;5719;42.714;23.732;2023-12-28T06:39:52;95584.94;;;1.55;82.08
11329;BME280;5719;42.714;23.732;2023-12-28T06:42:21;95580.13;;;1.83;81.47
11329;BME280;5719;42.714;23.732;2023-12-28T06:44:47;95581.25;;;2.10;80.52
11329;BME280;5719;42.714;23.732;2023-12-28T06:47:14;95581.47;;;2.37;79.95
11329;BME280;5719;42.714;23.732;2023-12-28T06:49:40;95583.41;;;2.65;78.13
11329;BME280;5719;42.714;23.732;2023-12-28T06:52:07;95582.78;;;2.90;77.54
11329;BME280;5719;42.714;23.732;2023-12-28T06:54:33;95587.09;;;3.21;76.78
11329;BME280;5719;42.714;23.732;2023-12-28T06:57:01;95590.44;;;3.55;75.13
11329;BME280;5719;42.714;23.732;2023-12-28T06:59:29;95581.97;;;3.84;73.94
11329;BME280;5719;42.714;23.732;2023-12-28T07:01:56;95585.06;;;4.24;72.88
11329;BME280;5719;42.714;23.732;2023-12-28T07:04:23;95581.56;;;4.55;71.46
11329;BME280;5719;42.714;23.732;2023-12-28T07:06:52;95584.72;;;4.89;70.22
11329;BME280;5719;42.714;23.732;2023-12-28T07:09:18;95581.13;;;5.21;69.13
11329;BME280;5719;42.714;23.732;2023-12-28T07:11:45;95577.63;;;5.48;68.24
11329;BME280;5719;42.714;23.732;2023-12-28T07:14:12;95563.75;;;5.77;67.14
11329;BME280;5719;42.714;23.732;2023-12-28T07:16:40;95565.19;;;6.09;66.33
11329;BME280;5719;42.714;23.732;2023-12-28T07:19:07;95567.16;;;6.47;65.05
11329;BME280;5719;42.714;23.732;2023-12-28T07:21:34;95561.28;;;6.87;64.08
11329;BME280;5719;42.714;23.732;2023-12-28T07:24:00;95566.59;;;7.24;63.29
11329;BME280;5719;42.714;23.732;2023-12-28T07:26:27;95565.88;;;7.61;61.56
11329;BME280;5719;42.714;23.732;2023-12-28T07:28:54;95562.75;;;7.94;60.86
11329;BME280;5719;42.714;23.732;2023-12-28T07:31:24;95555.88;;;8.31;59.24
11329;BME280;5719;42.714;23.732;2023-12-28T07:33:52;95567.88;;;8.68;58.84
11329;BME280;5719;42.714;23.732;2023-12-28T07:36:19;95573.13;;;9.03;57.84
11329;BME280;5719;42.714;23.732;2023-12-28T07:38:46;95568.78;;;9.38;57.17
11329;BME280;5719;42.714;23.732;2023-12-28T07:41:13;95557.50;;;9.73;56.62
11329;BME280;5719;42.714;23.732;2023-12-28T07:43:40;95565.03;;;10.10;55.41
11329;BME280;5719;42.714;23.732;2023-12-28T07:46:07;95569.75;;;10.35;54.94
11329;BME280;5719;42.714;23.732;2023-12-28T07:48:34;95557.75;;;10.65;55.05
11329;BME280;5719;42.714;23.732;2023-12-28T07:51:05;95562.38;;;11.06;53.26
11329;BME280;5719;42.714;23.732;2023-12-28T07:53:32;95548.69;;;11.33;52.42
11329;BME280;5719;42.714;23.732;2023-12-28T07:55:59;95565.47;;;11.72;51.68
11329;BME280;5719;42.714;23.732;2023-12-28T07:58:26;95565.22;;;12.05;50.67
11329;BME280;5719;42.714;23.732;2023-12-28T08:00:53;95557.44;;;12.33;49.77
11329;BME280;5719;42.714;23.732;2023-12-28T08:03:20;95560.09;;;12.60;49.22
11329;BME280;5719;42.714;23.732;2023-12-28T08:05:46;95556.56;;;12.88;48.99
11329;BME280;5719;42.714;23.732;2023-12-28T08:08:14;95563.25;;;13.04;49.15
11329;BME280;5719;42.714;23.732;2023-12-28T08:10:41;95559.47;;;13.37;48.11
11329;BME280;5719;42.714;23.732;2023-12-28T08:13:08;95555.03;;;13.64;47.54
11329;BME280;5719;42.714;23.732;2023-12-28T08:15:35;95551.31;;;13.93;46.88
11329;BME280;5719;42.714;23.732;2023-12-28T08:18:02;95570.44;;;14.17;46.38
11329;BME280;5719;42.714;23.732;2023-12-28T08:20:29;95566.50;;;14.37;45.53
11329;BME280;5719;42.714;23.732;2023-12-28T08:22:57;95562.59;;;14.68;45.17
11329;BME280;5719;42.714;23.732;2023-12-28T08:25:26;95564.75;;;14.98;45.09
11329;BME280;5719;42.714;23.732;2023-12-28T08:27:52;95565.44;;;15.36;44.33
11329;BME280;5719;42.714;23.732;2023-12-28T08:30:20;95565.69;;;15.68;43.96
11329;BME280;5719;42.714;23.732;2023-12-28T08:32:46;95563.03;;;15.92;43.86
11329;BME280;5719;42.714;23.732;2023-12-28T08:35:13;95559.25;;;16.18;43.58
11329;BME280;5719;42.714;23.732;2023-12-28T08:37:40;95564.47;;;16.51;43.32
11329;BME280;5719;42.714;23.732;2023-12-28T08:40:08;95562.81;;;16.84;42.92
11329;BME280;5719;42.714;23.732;2023-12-28T08:42:36;95559.69;;;17.12;42.87
11329;BME280;5719;42.714;23.732;2023-12-28T08:45:03;95549.34;;;17.42;42.53
11329;BME280;5719;42.714;23.732;2023-12-28T08:47:30;95541.69;;;17.61;42.53
11329;BME280;5719;42.714;23.732;2023-12-28T08:49:59;95534.03;;;17.70;42.88
11329;BME280;5719;42.714;23.732;2023-12-28T08:52:26;95535.13;;;17.88;42.38
11329;BME280;5719;42.714;23.732;2023-12-28T08:54:53;95529.00;;;17.78;41.73
11329;BME280;5719;42.714;23.732;2023-12-28T08:57:20;95526.69;;;17.84;42.66
11329;BME280;5719;42.714;23.732;2023-12-28T08:59:49;95527.88;;;18.01;42.69
11329;BME280;5719;42.714;23.732;2023-12-28T09:02:17;95521.09;;;18.19;41.70
11329;BME280;5719;42.714;23.732;2023-12-28T09:04:44;95508.25;;;18.46;41.54
11329;BME280;5719;42.714;23.732;2023-12-28T09:07:11;95510.56;;;18.70;41.26
11329;BME280;5719;42.714;23.732;2023-12-28T09:09:38;95518.75;;;18.96;40.75
11329;BME280;5719;42.714;23.732;2023-12-28T09:12:05;95511.44;;;19.09;39.94
11329;BME280;5719;42.714;23.732;2023-12-28T09:14:32;95509.69;;;19.29;39.69
11329;BME280;5719;42.714;23.732;2023-12-28T09:17:00;95503.34;;;19.41;39.35
11329;BME280;5719;42.714;23.732;2023-12-28T09:19:27;95504.16;;;19.61;38.72
11329;BME280;5719;42.714;23.732;2023-12-28T09:21:54;95504.56;;;19.85;38.90
11329;BME280;5719;42.714;23.732;2023-12-28T09:24:22;95498.75;;;19.91;38.78
11329;BME280;5719;42.714;23.732;2023-12-28T09:26:49;95492.00;;;19.40;38.88
11329;BME280;5719;42.714;23.732;2023-12-28T09:29:16;95487.59;;;19.31;39.43
11329;BME280;5719;42.714;23.732;2023-12-28T09:31:45;95473.88;;;19.95;38.23
11329;BME280;5719;42.714;23.732;2023-12-28T09:34:14;95468.81;;;20.21;38.03
11329;BME280;5719;42.714;23.732;2023-12-28T09:36:40;95469.28;;;20.06;38.41
11329;BME280;5719;42.714;23.732;2023-12-28T09:39:07;95465.06;;;20.23;38.02
11329;BME280;5719;42.714;23.732;2023-12-28T09:41:37;95467.22;;;20.37;37.65
11329;BME280;5719;42.714;23.732;2023-12-28T09:44:08;95460.47;;;20.35;37.80
11329;BME280;5719;42.714;23.732;2023-12-28T09:46:36;95458.91;;;20.05;38.42
11329;BME280;5719;42.714;23.732;2023-12-28T09:49:04;95454.34;;;20.07;38.80
11329;BME280;5719;42.714;23.732;2023-12-28T09:51:32;95445.34;;;20.46;38.45
11329;BME280;5719;42.714;23.732;2023-12-28T09:53:59;95441.31;;;20.15;38.74
11329;BME280;5719;42.714;23.732;2023-12-28T10:03:11;95429.00;;;21.15;37.43
11329;BME280;5719;42.714;23.732;2023-12-28T10:05:40;95434.38;;;21.31;37.42
11329;BME280;5719;42.714;23.732;2023-12-28T10:08:08;95412.38;;;19.97;38.59
11329;BME280;5719;42.714;23.732;2023-12-28T10:10:37;95435.22;;;20.51;37.83
11329;BME280;5719;42.714;23.732;2023-12-28T10:13:06;95431.72;;;20.78;37.81
11329;BME280;5719;42.714;23.732;2023-12-28T10:22:21;95404.81;;;17.82;42.61
11329;BME280;5719;42.714;23.732;2023-12-28T10:24:50;95404.25;;;18.18;41.63
11329;BME280;5719;42.714;23.732;2023-12-28T10:27:17;95405.34;;;18.06;41.59
11329;BME280;5719;42.714;23.732;2023-12-28T10:29:44;95400.69;;;18.97;40.48
11329;BME280;5719;42.714;23.732;2023-12-28T10:32:12;95390.75;;;19.10;40.34
11329;BME280;5719;42.714;23.732;2023-12-28T10:34:40;95381.88;;;19.40;39.56
11329;BME280;5719;42.714;23.732;2023-12-28T10:37:06;95386.06;;;19.80;38.99
11329;BME280;5719;42.714;23.732;2023-12-28T10:39:34;95384.19;;;19.99;38.96
11329;BME280;5719;42.714;23.732;2023-12-28T10:45:25;95373.41;;;20.02;38.08
11329;BME280;5719;42.714;23.732;2023-12-28T10:48:04;95372.66;;;20.10;38.15
11329;BME280;5719;42.714;23.732;2023-12-28T10:50:38;95371.31;;;20.33;38.07
11329;BME280;5719;42.714;23.732;2023-12-28T10:53:30;95360.41;;;20.01;38.29
11329;BME280;5719;42.714;23.732;2023-12-28T10:56:10;95342.91;;;20.19;37.90
11329;BME280;5719;42.714;23.732;2023-12-28T10:58:48;95338.00;;;20.51;37.26
11329;BME280;5719;42.714;23.732;2023-12-28T11:01:21;95332.31;;;20.56;37.89
11329;BME280;5719;42.714;23.732;2023-12-28T11:03:54;95324.59;;;20.54;37.76
11329;BME280;5719;42.714;23.732;2023-12-28T11:06:23;95324.22;;;20.49;37.53
11329;BME280;5719;42.714;23.732;2023-12-28T11:08:52;95318.19;;;20.92;36.89
11329;BME280;5719;42.714;23.732;2023-12-28T11:11:21;95308.16;;;21.14;36.85
11329;BME280;5719;42.714;23.732;2023-12-28T11:13:49;95306.84;;;21.35;36.41
11329;BME280;5719;42.714;23.732;2023-12-28T11:16:18;95293.34;;;21.30;36.41
11329;BME280;5719;42.714;23.732;2023-12-28T11:18:46;95291.09;;;21.18;36.52
11329;BME280;5719;42.714;23.732;2023-12-28T11:21:14;95283.16;;;20.92;36.56
11329;BME280;5719;42.714;23.732;2023-12-28T11:23:42;95277.88;;;20.66;36.91
11329;BME280;5719;42.714;23.732;2023-12-28T11:26:16;95277.97;;;21.00;36.60
11329;BME280;5719;42.714;23.732;2023-12-28T11:28:43;95275.53;;;21.24;36.52
11329;BME280;5719;42.714;23.732;2023-12-28T11:31:10;95265.53;;;20.84;36.72
11329;BME280;5719;42.714;23.732;2023-12-28T11:33:45;95272.13;;;20.88;36.50
11329;BME280;5719;42.714;23.732;2023-12-28T11:36:21;95262.75;;;20.86;36.67
11329;BME280;5719;42.714;23.732;2023-12-28T11:38:50;95260.75;;;21.23;35.94
11329;BME280;5719;42.714;23.732;2023-12-28T11:41:20;95259.09;;;20.79;36.14
11329;BME280;5719;42.714;23.732;2023-12-28T11:43:52;95260.84;;;20.52;36.68
11329;BME280;5719;42.714;23.732;2023-12-28T11:46:21;95257.19;;;20.89;35.94
11329;BME280;5719;42.714;23.732;2023-12-28T11:48:49;95257.38;;;20.70;36.38
11329;BME280;5719;42.714;23.732;2023-12-28T11:51:16;95255.88;;;20.14;36.65
11329;BME280;5719;42.714;23.732;2023-12-28T11:53:45;95256.84;;;19.95;36.98
11329;BME280;5719;42.714;23.732;2023-12-28T11:56:16;95257.53;;;19.43;37.58
11329;BME280;5719;42.714;23.732;2023-12-28T11:58:42;95254.53;;;19.65;37.85
11329;BME280;5719;42.714;23.732;2023-12-28T12:01:12;95249.63;;;20.15;37.18
11329;BME280;5719;42.714;23.732;2023-12-28T12:03:39;95251.47;;;20.68;36.30
11329;BME280;5719;42.714;23.732;2023-12-28T12:06:07;95257.09;;;19.75;37.51
11329;BME280;5719;42.714;23.732;2023-12-28T12:08:35;95232.81;;;19.90;37.84
11329;BME280;5719;42.714;23.732;2023-12-28T12:11:02;95229.84;;;20.03;37.51
11329;BME280;5719;42.714;23.732;2023-12-28T12:13:31;95219.78;;;20.51;36.67
11329;BME280;5719;42.714;23.732;2023-12-28T12:15:58;95223.81;;;19.93;37.93
11329;BME280;5719;42.714;23.732;2023-12-28T12:18:26;95223.41;;;20.50;37.19
11329;BME280;5719;42.714;23.732;2023-12-28T12:20:53;95215.81;;;20.47;37.22
11329;BME280;5719;42.714;23.732;2023-12-28T12:23:21;95220.56;;;20.62;37.10
11329;BME280;5719;42.714;23.732;2023-12-28T12:25:49;95224.41;;;20.75;36.97
11329;BME280;5719;42.714;23.732;2023-12-28T12:28:15;95214.06;;;21.25;36.14
11329;BME280;5719;42.714;23.732;2023-12-28T12:30:49;95220.31;;;21.66;35.84
11329;BME280;5719;42.714;23.732;2023-12-28T12:33:16;95214.63;;;21.37;35.53
11329;BME280;5719;42.714;23.732;2023-12-28T12:35:43;95212.72;;;21.21;36.47
11329;BME280;5719;42.714;23.732;2023-12-28T12:38:10;95211.91;;;20.51;37.19
11329;BME280;5719;42.714;23.732;2023-12-28T12:40:39;95215.34;;;20.70;36.89
11329;BME280;5719;42.714;23.732;2023-12-28T12:43:06;95213.91;;;20.75;36.97
11329;BME280;5719;42.714;23.732;2023-12-28T12:45:34;95208.91;;;20.90;36.68
11329;BME280;5719;42.714;23.732;2023-12-28T12:48:02;95205.66;;;20.96;36.97
11329;BME280;5719;42.714;23.732;2023-12-28T12:50:29;95208.97;;;21.66;35.65
11329;BME280;5719;42.714;23.732;2023-12-28T12:52:59;95208.25;;;21.14;36.46
11329;BME280;5719;42.714;23.732;2023-12-28T12:55:25;95199.38;;;20.89;37.32
11329;BME280;5719;42.714;23.732;2023-12-28T12:57:54;95193.28;;;20.88;36.98
11329;BME280;5719;42.714;23.732;2023-12-28T13:00:22;95201.34;;;20.61;37.23
11329;BME280;5719;42.714;23.732;2023-12-28T13:02:49;95200.41;;;20.96;36.99
11329;BME280;5719;42.714;23.732;2023-12-28T13:05:17;95205.84;;;20.77;36.77
11329;BME280;5719;42.714;23.732;2023-12-28T13:07:44;95206.44;;;21.14;36.20
11329;BME280;5719;42.714;23.732;2023-12-28T13:10:10;95211.63;;;21.32;36.36
11329;BME280;5719;42.714;23.732;2023-12-28T13:12:37;95210.28;;;21.62;36.21
11329;BME280;5719;42.714;23.732;2023-12-28T13:15:06;95227.63;;;21.38;36.35
11329;BME280;5719;42.714;23.732;2023-12-28T13:17:35;95215.03;;;20.98;37.15
11329;BME280;5719;42.714;23.732;2023-12-28T13:20:02;95222.50;;;20.85;37.27
11329;BME280;5719;42.714;23.732;2023-12-28T13:22:29;95211.03;;;20.86;37.32
11329;BME280;5719;42.714;23.732;2023-12-28T13:24:56;95214.34;;;21.14;36.91
11329;BME280;5719;42.714;23.732;2023-12-28T13:27:23;95217.00;;;19.82;38.70